sensor_id;sensor_type;location;lat;lon;timestamp;P1;durP1;ratioP1;P2;durP2;ratioP2
41903;SDS011;27586;51.124;4.182;2023-04-01T00:01:30;9.60;;;5.13;;
41903;SDS011;27586;51.124;4.182;2023-04-01T00:03:56;8.48;;;5.13;;
41903;SDS011;27586;51.124;4.182;2023-04-01T00:06:22;8.70;;;5.10;;
41903;SDS011;27586;51.124;4.182;2023-04-01T00:08:47;9.80;;;5.32;;
41903;SDS011;27586;51.124;4.182;2023-04-01T00:11:14;10.77;;;5.57;;
41903;SDS011;27586;51.124;4.182;2023-04-01T00:13:40;8.32;;;5.60;;
41903;SDS011;27586;51.124;4.182;2023-04-01T00:16:07;9.40;;;5.78;;
41903;SDS011;27586;51.124;4.182;2023-04-01T00:18:33;10.57;;;5.75;;
41903;SDS011;27586;51.124;4.182;2023-04-01T00:20:58;8.68;;;6.10;;
41903;SDS011;27586;51.124;4.182;2023-04-01T00:23:24;9.77;;;5.93;;
41903;SDS011;27586;51.124;4.182;2023-04-01T00:25:50;8.13;;;6.15;;
41903;SDS011;27586;51.124;4.182;2023-04-01T00:28:16;12.35;;;7.40;;
41903;SDS011;27586;51.124;4.182;2023-04-01T00:30:43;13.05;;;7.72;;
41903;SDS011;27586;51.124;4.182;2023-04-01T00:33:08;9.63;;;6.95;;
41903;SDS011;27586;51.124;4.182;2023-04-01T00:35:34;10.55;;;7.38;;
41903;SDS011;27586;51.124;4.182;2023-04-01T00:38:00;12.15;;;7.80;;
41903;SDS011;27586;51.124;4.182;2023-04-01T00:42:57;10.43;;;6.22;;
41903;SDS011;27586;51.124;4.182;2023-04-01T00:45:28;10.27;;;7.43;;
41903;SDS011;27586;51.124;4.182;2023-04-01T00:48:03;13.27;;;7.55;;
41903;SDS011;27586;51.124;4.182;2023-04-01T00:50:34;11.55;;;7.22;;
41903;SDS011;27586;51.124;4.182;2023-04-01T00:53:01;11.32;;;7.63;;
41903;SDS011;27586;51.124;4.182;2023-04-01T00:55:29;8.43;;;7.15;;
41903;SDS011;27586;51.124;4.182;2023-04-01T00:57:58;11.70;;;7.75;;
41903;SDS011;27586;51.124;4.182;2023-04-01T01:00:26;11.02;;;6.80;;
41903;SDS011;27586;51.124;4.182;2023-04-01T01:02:52;10.25;;;7.38;;
41903;SDS011;27586;51.124;4.182;2023-04-01T01:05:19;14.23;;;7.45;;
41903;SDS011;27586;51.124;4.182;2023-04-01T01:10:33;13.95;;;8.20;;
41903;SDS011;27586;51.124;4.182;2023-04-01T01:13:06;10.10;;;6.93;;
41903;SDS011;27586;51.124;4.182;2023-04-01T01:18:44;10.13;;;6.68;;
41903;SDS011;27586;51.124;4.182;2023-04-01T01:27:17;9.45;;;5.65;;
41903;SDS011;27586;51.124;4.182;2023-04-01T01:29:54;7.97;;;4.80;;
41903;SDS011;27586;51.124;4.182;2023-04-01T01:32:38;8.77;;;5.15;;
41903;SDS011;27586;51.124;4.182;2023-04-01T01:37:44;7.10;;;4.88;;
41903;SDS011;27586;51.124;4.182;2023-04-01T01:40:12;6.50;;;5.07;;
41903;SDS011;27586;51.124;4.182;2023-04-01T01:42:40;7.20;;;5.32;;
41903;SDS011;27586;51.124;4.182;2023-04-01T01:45:11;9.02;;;5.90;;
41903;SDS011;27586;51.124;4.182;2023-04-01T01:47:39;8.25;;;5.80;;
41903;SDS011;27586;51.124;4.182;2023-04-01T01:50:06;6.32;;;5.50;;
41903;SDS011;27586;51.124;4.182;2023-04-01T01:52:34;6.63;;;5.57;;
41903;SDS011;27586;51.124;4.182;2023-04-01T01:54:59;6.72;;;5.45;;
41903;SDS011;27586;51.124;4.182;2023-04-01T01:57:26;9.80;;;6.18;;
41903;SDS011;27586;51.124;4.182;2023-04-01T02:00:08;7.45;;;5.72;;
41903;SDS011;27586;51.124;4.182;2023-04-01T02:02:41;11.82;;;6.32;;
41903;SDS011;27586;51.124;4.182;2023-04-01T02:05:10;8.30;;;5.80;;
41903;SDS011;27586;51.124;4.182;2023-04-01T02:07:41;7.78;;;6.38;;
41903;SDS011;27586;51.124;4.182;2023-04-01T02:10:12;9.68;;;6.30;;
41903;SDS011;27586;51.124;4.182;2023-04-01T02:12:38;6.90;;;5.68;;
41903;SDS011;27586;51.124;4.182;2023-04-01T02:15:10;7.00;;;5.07;;
41903;SDS011;27586;51.124;4.182;2023-04-01T02:17:39;7.00;;;5.22;;
41903;SDS011;27586;51.124;4.182;2023-04-01T02:20:12;8.52;;;5.13;;
41903;SDS011;27586;51.124;4.182;2023-04-01T02:22:49;9.68;;;4.65;;
41903;SDS011;27586;51.124;4.182;2023-04-01T02:25:20;7.18;;;4.70;;
41903;SDS011;27586;51.124;4.182;2023-04-01T02:27:51;4.75;;;3.95;;
41903;SDS011;27586;51.124;4.182;2023-04-01T02:30:20;7.72;;;4.43;;
41903;SDS011;27586;51.124;4.182;2023-04-01T02:32:46;6.32;;;4.55;;
41903;SDS011;27586;51.124;4.182;2023-04-01T02:35:14;5.15;;;4.07;;
41903;SDS011;27586;51.124;4.182;2023-04-01T02:37:41;6.03;;;4.45;;
41903;SDS011;27586;51.124;4.182;2023-04-01T02:40:10;5.72;;;4.13;;
41903;SDS011;27586;51.124;4.182;2023-04-01T02:42:37;6.53;;;4.45;;
41903;SDS011;27586;51.124;4.182;2023-04-01T02:45:03;5.82;;;4.40;;
41903;SDS011;27586;51.124;4.182;2023-04-01T02:47:30;5.03;;;4.30;;
41903;SDS011;27586;51.124;4.182;2023-04-01T02:49:56;7.07;;;4.90;;
41903;SDS011;27586;51.124;4.182;2023-04-01T02:52:32;6.20;;;5.60;;
41903;SDS011;27586;51.124;4.182;2023-04-01T02:54:58;6.95;;;6.25;;
41903;SDS011;27586;51.124;4.182;2023-04-01T02:57:24;7.10;;;6.40;;
41903;SDS011;27586;51.124;4.182;2023-04-01T02:59:50;7.70;;;7.00;;
41903;SDS011;27586;51.124;4.182;2023-04-01T03:02:16;9.95;;;8.00;;
41903;SDS011;27586;51.124;4.182;2023-04-01T03:04:42;11.35;;;9.32;;
41903;SDS011;27586;51.124;4.182;2023-04-01T03:07:08;11.50;;;9.43;;
41903;SDS011;27586;51.124;4.182;2023-04-01T03:09:35;8.98;;;7.47;;
41903;SDS011;27586;51.124;4.182;2023-04-01T03:12:02;8.48;;;7.15;;
41903;SDS011;27586;51.124;4.182;2023-04-01T03:14:27;10.63;;;8.38;;
41903;SDS011;27586;51.124;4.182;2023-04-01T03:16:53;11.47;;;8.53;;
41903;SDS011;27586;51.124;4.182;2023-04-01T03:19:19;9.35;;;7.40;;
41903;SDS011;27586;51.124;4.182;2023-04-01T03:21:45;9.38;;;6.95;;
41903;SDS011;27586;51.124;4.182;2023-04-01T03:24:11;12.18;;;7.35;;
41903;SDS011;27586;51.124;4.182;2023-04-01T03:26:36;10.45;;;6.95;;
41903;SDS011;27586;51.124;4.182;2023-04-01T03:29:02;9.93;;;8.52;;
41903;SDS011;27586;51.124;4.182;2023-04-01T03:31:28;14.38;;;10.43;;
41903;SDS011;27586;51.124;4.182;2023-04-01T03:33:54;15.30;;;11.40;;
41903;SDS011;27586;51.124;4.182;2023-04-01T03:36:19;16.27;;;12.38;;
41903;SDS011;27586;51.124;4.182;2023-04-01T03:38:45;19.15;;;13.60;;
41903;SDS011;27586;51.124;4.182;2023-04-01T03:41:15;20.48;;;12.98;;
41903;SDS011;27586;51.124;4.182;2023-04-01T03:43:42;15.10;;;10.43;;
41903;SDS011;27586;51.124;4.182;2023-04-01T03:46:08;14.55;;;11.90;;
41903;SDS011;27586;51.124;4.182;2023-04-01T03:48:34;14.25;;;11.73;;
41903;SDS011;27586;51.124;4.182;2023-04-01T03:51:00;14.82;;;11.35;;
41903;SDS011;27586;51.124;4.182;2023-04-01T03:53:25;14.60;;;12.40;;
41903;SDS011;27586;51.124;4.182;2023-04-01T03:55:52;16.98;;;13.07;;
41903;SDS011;27586;51.124;4.182;2023-04-01T03:58:17;16.30;;;12.73;;
41903;SDS011;27586;51.124;4.182;2023-04-01T04:00:43;14.20;;;12.18;;
41903;SDS011;27586;51.124;4.182;2023-04-01T04:03:09;13.73;;;12.02;;
41903;SDS011;27586;51.124;4.182;2023-04-01T04:05:35;13.13;;;11.25;;
41903;SDS011;27586;51.124;4.182;2023-04-01T04:08:00;11.88;;;10.43;;
41903;SDS011;27586;51.124;4.182;2023-04-01T04:10:26;10.95;;;8.80;;
41903;SDS011;27586;51.124;4.182;2023-04-01T04:12:54;7.85;;;7.05;;
41903;SDS011;27586;51.124;4.182;2023-04-01T04:15:20;7.63;;;6.80;;
41903;SDS011;27586;51.124;4.182;2023-04-01T04:17:46;9.90;;;7.68;;
41903;SDS011;27586;51.124;4.182;2023-04-01T04:20:11;8.80;;;6.75;;
41903;SDS011;27586;51.124;4.182;2023-04-01T04:22:37;9.18;;;8.00;;
41903;SDS011;27586;51.124;4.182;2023-04-01T04:25:03;11.10;;;9.70;;
41903;SDS011;27586;51.124;4.182;2023-04-01T04:27:29;11.50;;;10.38;;
41903;SDS011;27586;51.124;4.182;2023-04-01T04:29:55;8.80;;;8.00;;
41903;SDS011;27586;51.124;4.182;2023-04-01T04:32:21;8.73;;;7.93;;
41903;SDS011;27586;51.124;4.182;2023-04-01T04:34:46;9.52;;;8.05;;
41903;SDS011;27586;51.124;4.182;2023-04-01T04:37:12;12.15;;;9.90;;
41903;SDS011;27586;51.124;4.182;2023-04-01T04:39:38;13.55;;;12.15;;
41903;SDS011;27586;51.124;4.182;2023-04-01T04:42:03;12.90;;;11.60;;
41903;SDS011;27586;51.124;4.182;2023-04-01T04:44:30;10.73;;;9.73;;
41903;SDS011;27586;51.124;4.182;2023-04-01T04:46:55;9.45;;;8.52;;
41903;SDS011;27586;51.124;4.182;2023-04-01T04:49:21;9.88;;;8.50;;
41903;SDS011;27586;51.124;4.182;2023-04-01T04:51:47;10.38;;;9.15;;
41903;SDS011;27586;51.124;4.182;2023-04-01T04:54:13;8.75;;;7.47;;
41903;SDS011;27586;51.124;4.182;2023-04-01T04:56:38;9.43;;;6.70;;
41903;SDS011;27586;51.124;4.182;2023-04-01T04:59:04;8.25;;;6.60;;
41903;SDS011;27586;51.124;4.182;2023-04-01T05:01:31;9.60;;;7.30;;
41903;SDS011;27586;51.124;4.182;2023-04-01T05:03:58;11.98;;;9.60;;
41903;SDS011;27586;51.124;4.182;2023-04-01T05:06:24;14.32;;;10.77;;
41903;SDS011;27586;51.124;4.182;2023-04-01T05:08:50;12.38;;;11.07;;
41903;SDS011;27586;51.124;4.182;2023-04-01T05:11:17;13.25;;;10.63;;
41903;SDS011;27586;51.124;4.182;2023-04-01T05:13:45;8.45;;;7.53;;
41903;SDS011;27586;51.124;4.182;2023-04-01T05:16:13;8.95;;;7.10;;
41903;SDS011;27586;51.124;4.182;2023-04-01T05:18:40;8.18;;;6.72;;
41903;SDS011;27586;51.124;4.182;2023-04-01T05:21:07;9.85;;;6.78;;
41903;SDS011;27586;51.124;4.182;2023-04-01T05:23:34;6.00;;;5.40;;
41903;SDS011;27586;51.124;4.182;2023-04-01T05:26:07;6.15;;;4.47;;
41903;SDS011;27586;51.124;4.182;2023-04-01T05:28:34;4.50;;;4.10;;
41903;SDS011;27586;51.124;4.182;2023-04-01T05:31:00;4.75;;;4.30;;
41903;SDS011;27586;51.124;4.182;2023-04-01T05:33:27;4.90;;;4.35;;
41903;SDS011;27586;51.124;4.182;2023-04-01T05:35:53;4.97;;;4.47;;
41903;SDS011;27586;51.124;4.182;2023-04-01T05:38:19;5.40;;;4.18;;
41903;SDS011;27586;51.124;4.182;2023-04-01T05:40:45;4.00;;;3.45;;
41903;SDS011;27586;51.124;4.182;2023-04-01T05:43:11;5.05;;;3.55;;
41903;SDS011;27586;51.124;4.182;2023-04-01T05:45:37;4.80;;;3.38;;
41903;SDS011;27586;51.124;4.182;2023-04-01T05:48:02;4.38;;;3.10;;
41903;SDS011;27586;51.124;4.182;2023-04-01T05:50:29;3.72;;;2.97;;
41903;SDS011;27586;51.124;4.182;2023-04-01T05:52:55;3.70;;;2.67;;
41903;SDS011;27586;51.124;4.182;2023-04-01T05:55:21;3.72;;;2.70;;
41903;SDS011;27586;51.124;4.182;2023-04-01T05:57:47;5.45;;;3.33;;
41903;SDS011;27586;51.124;4.182;2023-04-01T06:00:14;7.50;;;3.58;;
41903;SDS011;27586;51.124;4.182;2023-04-01T06:02:41;3.75;;;2.70;;
41903;SDS011;27586;51.124;4.182;2023-04-01T06:07:44;3.80;;;3.25;;
41903;SDS011;27586;51.124;4.182;2023-04-01T06:10:17;4.43;;;3.35;;
41903;SDS011;27586;51.124;4.182;2023-04-01T06:13:05;5.63;;;4.05;;
41903;SDS011;27586;51.124;4.182;2023-04-01T06:15:52;5.22;;;4.38;;
41903;SDS011;27586;51.124;4.182;2023-04-01T06:29:50;3.90;;;3.05;;
41903;SDS011;27586;51.124;4.182;2023-04-01T06:32:48;3.33;;;2.15;;
41903;SDS011;27586;51.124;4.182;2023-04-01T06:35:39;3.70;;;2.20;;
41903;SDS011;27586;51.124;4.182;2023-04-01T06:41:04;2.65;;;2.45;;
41903;SDS011;27586;51.124;4.182;2023-04-01T06:46:43;3.78;;;2.85;;
41903;SDS011;27586;51.124;4.182;2023-04-01T06:54:41;3.72;;;3.30;;
41903;SDS011;27586;51.124;4.182;2023-04-01T06:59:59;3.20;;;2.88;;
41903;SDS011;27586;51.124;4.182;2023-04-01T07:05:33;4.38;;;3.30;;
41903;SDS011;27586;51.124;4.182;2023-04-01T07:08:01;5.40;;;3.45;;
41903;SDS011;27586;51.124;4.182;2023-04-01T07:13:00;6.20;;;4.72;;
41903;SDS011;27586;51.124;4.182;2023-04-01T07:15:33;3.53;;;2.92;;
41903;SDS011;27586;51.124;4.182;2023-04-01T07:18:07;3.40;;;3.00;;
41903;SDS011;27586;51.124;4.182;2023-04-01T07:20:41;3.90;;;3.20;;
41903;SDS011;27586;51.124;4.182;2023-04-01T07:23:19;3.08;;;2.78;;
41903;SDS011;27586;51.124;4.182;2023-04-01T07:25:51;4.22;;;2.60;;
41903;SDS011;27586;51.124;4.182;2023-04-01T07:28:20;2.47;;;2.28;;
41903;SDS011;27586;51.124;4.182;2023-04-01T07:30:52;4.18;;;2.83;;
41903;SDS011;27586;51.124;4.182;2023-04-01T07:36:42;4.22;;;2.67;;
41903;SDS011;27586;51.124;4.182;2023-04-01T07:39:15;4.20;;;2.95;;
41903;SDS011;27586;51.124;4.182;2023-04-01T07:42:17;3.40;;;2.60;;
41903;SDS011;27586;51.124;4.182;2023-04-01T07:45:01;2.55;;;2.22;;
41903;SDS011;27586;51.124;4.182;2023-04-01T07:50:56;2.22;;;1.70;;
41903;SDS011;27586;51.124;4.182;2023-04-01T07:58:31;4.53;;;1.90;;
41903;SDS011;27586;51.124;4.182;2023-04-01T08:01:23;2.70;;;1.95;;
41903;SDS011;27586;51.124;4.182;2023-04-01T08:04:03;2.60;;;2.40;;
41903;SDS011;27586;51.124;4.182;2023-04-01T08:07:03;3.88;;;2.38;;
41903;SDS011;27586;51.124;4.182;2023-04-01T08:12:37;2.17;;;1.92;;
41903;SDS011;27586;51.124;4.182;2023-04-01T08:15:36;2.50;;;2.30;;
41903;SDS011;27586;51.124;4.182;2023-04-01T08:23:28;2.10;;;1.90;;
41903;SDS011;27586;51.124;4.182;2023-04-01T08:28:41;2.25;;;1.80;;
41903;SDS011;27586;51.124;4.182;2023-04-01T08:34:05;3.47;;;2.40;;
41903;SDS011;27586;51.124;4.182;2023-04-01T08:36:45;2.22;;;1.92;;
41903;SDS011;27586;51.124;4.182;2023-04-01T08:39:20;2.08;;;1.60;;
41903;SDS011;27586;51.124;4.182;2023-04-01T08:56:09;1.65;;;1.05;;
41903;SDS011;27586;51.124;4.182;2023-04-01T09:12:40;1.65;;;1.23;;
41903;SDS011;27586;51.124;4.182;2023-04-01T09:21:11;0.80;;;0.70;;
41903;SDS011;27586;51.124;4.182;2023-04-01T09:26:38;1.58;;;1.05;;
41903;SDS011;27586;51.124;4.182;2023-04-01T09:32:53;1.98;;;1.40;;
41903;SDS011;27586;51.124;4.182;2023-04-01T09:38:35;2.90;;;1.58;;
41903;SDS011;27586;51.124;4.182;2023-04-01T09:41:31;2.15;;;1.60;;
41903;SDS011;27586;51.124;4.182;2023-04-01T09:46:40;3.25;;;1.70;;
41903;SDS011;27586;51.124;4.182;2023-04-01T10:03:32;4.35;;;2.38;;
41903;SDS011;27586;51.124;4.182;2023-04-01T10:11:45;1.27;;;1.10;;
41903;SDS011;27586;51.124;4.182;2023-04-01T10:17:48;2.20;;;0.93;;
41903;SDS011;27586;51.124;4.182;2023-04-01T10:30:50;2.90;;;1.30;;
41903;SDS011;27586;51.124;4.182;2023-04-01T10:44:55;1.52;;;1.42;;
41903;SDS011;27586;51.124;4.182;2023-04-01T10:50:43;4.72;;;1.70;;
41903;SDS011;27586;51.124;4.182;2023-04-01T10:56:33;2.72;;;1.58;;
41903;SDS011;27586;51.124;4.182;2023-04-01T11:33:38;1.88;;;1.20;;
41903;SDS011;27586;51.124;4.182;2023-04-01T11:39:03;1.08;;;1.02;;
41903;SDS011;27586;51.124;4.182;2023-04-01T11:53:21;1.95;;;1.27;;
41903;SDS011;27586;51.124;4.182;2023-04-01T11:58:40;1.95;;;1.27;;
41903;SDS011;27586;51.124;4.182;2023-04-01T12:01:27;1.10;;;0.77;;
41903;SDS011;27586;51.124;4.182;2023-04-01T12:06:51;1.15;;;0.80;;
41903;SDS011;27586;51.124;4.182;2023-04-01T12:15:17;1.42;;;1.00;;
41903;SDS011;27586;51.124;4.182;2023-04-01T12:29:57;0.95;;;0.80;;
41903;SDS011;27586;51.124;4.182;2023-04-01T12:32:49;1.58;;;0.80;;
41903;SDS011;27586;51.124;4.182;2023-04-01T12:38:43;0.85;;;0.80;;
41903;SDS011;27586;51.124;4.182;2023-04-01T12:41:27;1.25;;;0.68;;
41903;SDS011;27586;51.124;4.182;2023-04-01T12:52:10;0.70;;;0.70;;
41903;SDS011;27586;51.124;4.182;2023-04-01T13:00:44;1.05;;;0.93;;
41903;SDS011;27586;51.124;4.182;2023-04-01T13:03:20;1.15;;;1.00;;
41903;SDS011;27586;51.124;4.182;2023-04-01T13:08:22;1.15;;;1.05;;
41903;SDS011;27586;51.124;4.182;2023-04-01T13:11:09;1.20;;;1.10;;
41903;SDS011;27586;51.124;4.182;2023-04-01T13:16:26;1.52;;;1.00;;
41903;SDS011;27586;51.124;4.182;2023-04-01T13:35:28;1.33;;;0.80;;
41903;SDS011;27586;51.124;4.182;2023-04-01T13:38:12;1.08;;;0.98;;
41903;SDS011;27586;51.124;4.182;2023-04-01T13:41:10;1.38;;;0.90;;
41903;SDS011;27586;51.124;4.182;2023-04-01T13:43:48;0.80;;;0.65;;
41903;SDS011;27586;51.124;4.182;2023-04-01T13:46:33;0.60;;;0.50;;
41903;SDS011;27586;51.124;4.182;2023-04-01T14:06:09;0.90;;;0.70;;
41903;SDS011;27586;51.124;4.182;2023-04-01T14:14:31;1.05;;;0.70;;
41903;SDS011;27586;51.124;4.182;2023-04-01T14:33:28;2.38;;;1.00;;
41903;SDS011;27586;51.124;4.182;2023-04-01T14:39:15;1.65;;;0.90;;
41903;SDS011;27586;51.124;4.182;2023-04-01T14:52:36;2.95;;;1.10;;
41903;SDS011;27586;51.124;4.182;2023-04-01T14:58:15;1.73;;;1.15;;
41903;SDS011;27586;51.124;4.182;2023-04-01T15:15:01;1.48;;;1.10;;
41903;SDS011;27586;51.124;4.182;2023-04-01T15:25:27;0.80;;;0.70;;
41903;SDS011;27586;51.124;4.182;2023-04-01T15:36:16;1.25;;;0.90;;
41903;SDS011;27586;51.124;4.182;2023-04-01T15:38:53;2.60;;;0.95;;
41903;SDS011;27586;51.124;4.182;2023-04-01T15:41:34;1.73;;;0.90;;
41903;SDS011;27586;51.124;4.182;2023-04-01T15:46:56;1.42;;;1.20;;
41903;SDS011;27586;51.124;4.182;2023-04-01T15:49:34;1.08;;;0.98;;
41903;SDS011;27586;51.124;4.182;2023-04-01T15:58:04;3.75;;;1.30;;
41903;SDS011;27586;51.124;4.182;2023-04-01T16:01:07;1.65;;;1.25;;
41903;SDS011;27586;51.124;4.182;2023-04-01T16:09:02;1.60;;;1.00;;
41903;SDS011;27586;51.124;4.182;2023-04-01T16:19:49;1.88;;;1.10;;
41903;SDS011;27586;51.124;4.182;2023-04-01T16:27:58;1.50;;;1.17;;
41903;SDS011;27586;51.124;4.182;2023-04-01T16:30:40;1.50;;;1.20;;
41903;SDS011;27586;51.124;4.182;2023-04-01T16:33:14;1.25;;;1.10;;
41903;SDS011;27586;51.124;4.182;2023-04-01T16:35:58;1.27;;;1.17;;
41903;SDS011;27586;51.124;4.182;2023-04-01T16:38:36;1.88;;;1.10;;
41903;SDS011;27586;51.124;4.182;2023-04-01T16:41:14;1.40;;;1.30;;
41903;SDS011;27586;51.124;4.182;2023-04-01T16:43:56;2.38;;;1.50;;
41903;SDS011;27586;51.124;4.182;2023-04-01T16:46:44;2.92;;;2.15;;
41903;SDS011;27586;51.124;4.182;2023-04-01T16:49:16;2.67;;;2.30;;
41903;SDS011;27586;51.124;4.182;2023-04-01T16:52:16;2.38;;;2.17;;
41903;SDS011;27586;51.124;4.182;2023-04-01T16:54:55;4.43;;;2.67;;
41903;SDS011;27586;51.124;4.182;2023-04-01T17:00:36;2.35;;;2.10;;
41903;SDS011;27586;51.124;4.182;2023-04-01T17:05:39;2.60;;;2.20;;
41903;SDS011;27586;51.124;4.182;2023-04-01T17:14:54;4.28;;;3.88;;
41903;SDS011;27586;51.124;4.182;2023-04-01T17:17:37;7.13;;;4.70;;
41903;SDS011;27586;51.124;4.182;2023-04-01T17:39:02;4.47;;;3.33;;
41903;SDS011;27586;51.124;4.182;2023-04-01T17:41:52;5.30;;;3.22;;
41903;SDS011;27586;51.124;4.182;2023-04-01T17:58:55;5.43;;;4.90;;
41903;SDS011;27586;51.124;4.182;2023-04-01T18:23:14;16.63;;;9.38;;
41903;SDS011;27586;51.124;4.182;2023-04-01T18:25:52;16.17;;;10.60;;
41903;SDS011;27586;51.124;4.182;2023-04-01T18:28:39;19.20;;;11.23;;
41903;SDS011;27586;51.124;4.182;2023-04-01T18:41:38;23.63;;;11.82;;
41903;SDS011;27586;51.124;4.182;2023-04-01T18:44:24;26.00;;;14.82;;
41903;SDS011;27586;51.124;4.182;2023-04-01T18:50:07;15.32;;;10.40;;
41903;SDS011;27586;51.124;4.182;2023-04-01T18:53:08;22.17;;;12.15;;
41903;SDS011;27586;51.124;4.182;2023-04-01T18:55:49;13.90;;;9.18;;
41903;SDS011;27586;51.124;4.182;2023-04-01T18:58:32;18.50;;;9.52;;
41903;SDS011;27586;51.124;4.182;2023-04-01T19:01:17;19.08;;;10.80;;
41903;SDS011;27586;51.124;4.182;2023-04-01T19:06:32;23.50;;;11.13;;
41903;SDS011;27586;51.124;4.182;2023-04-01T19:11:50;23.90;;;11.75;;
41903;SDS011;27586;51.124;4.182;2023-04-01T19:17:20;22.90;;;11.35;;
41903;SDS011;27586;51.124;4.182;2023-04-01T19:30:59;24.30;;;12.27;;
41903;SDS011;27586;51.124;4.182;2023-04-01T19:34:06;19.10;;;11.70;;
41903;SDS011;27586;51.124;4.182;2023-04-01T19:41:52;22.23;;;11.45;;
41903;SDS011;27586;51.124;4.182;2023-04-01T19:44:32;21.67;;;12.10;;
41903;SDS011;27586;51.124;4.182;2023-04-01T19:47:09;20.13;;;11.15;;
41903;SDS011;27586;51.124;4.182;2023-04-01T19:52:45;19.00;;;11.55;;
41903;SDS011;27586;51.124;4.182;2023-04-01T19:58:02;23.45;;;12.50;;
41903;SDS011;27586;51.124;4.182;2023-04-01T20:00:50;21.40;;;12.63;;
41903;SDS011;27586;51.124;4.182;2023-04-01T20:03:29;20.25;;;12.15;;
41903;SDS011;27586;51.124;4.182;2023-04-01T20:17:19;25.85;;;14.35;;
41903;SDS011;27586;51.124;4.182;2023-04-01T20:20:02;25.50;;;13.95;;
41903;SDS011;27586;51.124;4.182;2023-04-01T20:39:33;26.73;;;17.67;;
41903;SDS011;27586;51.124;4.182;2023-04-01T20:48:47;26.60;;;17.35;;
41903;SDS011;27586;51.124;4.182;2023-04-01T20:51:14;26.13;;;16.55;;
41903;SDS011;27586;51.124;4.182;2023-04-01T21:02:05;22.17;;;16.23;;
41903;SDS011;27586;51.124;4.182;2023-04-01T21:07:07;21.67;;;16.85;;
41903;SDS011;27586;51.124;4.182;2023-04-01T21:35:49;23.10;;;20.10;;
41903;SDS011;27586;51.124;4.182;2023-04-01T21:46:47;19.08;;;16.70;;
41903;SDS011;27586;51.124;4.182;2023-04-01T22:00:34;18.17;;;16.45;;
41903;SDS011;27586;51.124;4.182;2023-04-01T22:03:29;17.77;;;16.20;;
41903;SDS011;27586;51.124;4.182;2023-04-01T22:08:54;16.17;;;14.68;;
41903;SDS011;27586;51.124;4.182;2023-04-01T22:14:33;16.45;;;15.00;;
41903;SDS011;27586;51.124;4.182;2023-04-01T22:17:29;15.77;;;14.48;;
41903;SDS011;27586;51.124;4.182;2023-04-01T22:20:16;15.90;;;14.57;;
41903;SDS011;27586;51.124;4.182;2023-04-01T22:25:51;15.45;;;14.15;;
41903;SDS011;27586;51.124;4.182;2023-04-01T22:28:29;15.07;;;13.85;;
41903;SDS011;27586;51.124;4.182;2023-04-01T22:31:16;13.85;;;12.63;;
41903;SDS011;27586;51.124;4.182;2023-04-01T22:34:09;12.73;;;11.73;;
41903;SDS011;27586;51.124;4.182;2023-04-01T22:37:02;14.07;;;12.85;;
41903;SDS011;27586;51.124;4.182;2023-04-01T22:42:44;11.88;;;10.98;;
41903;SDS011;27586;51.124;4.182;2023-04-01T22:50:22;12.15;;;10.95;;
41903;SDS011;27586;51.124;4.182;2023-04-01T22:53:03;11.05;;;10.15;;
41903;SDS011;27586;51.124;4.182;2023-04-01T22:55:45;11.48;;;10.55;;
41903;SDS011;27586;51.124;4.182;2023-04-01T22:58:16;12.93;;;11.93;;
41903;SDS011;27586;51.124;4.182;2023-04-01T23:00:57;13.65;;;12.45;;
41903;SDS011;27586;51.124;4.182;2023-04-01T23:03:36;15.27;;;13.98;;
41903;SDS011;27586;51.124;4.182;2023-04-01T23:06:06;14.35;;;13.07;;
41903;SDS011;27586;51.124;4.182;2023-04-01T23:16:53;16.08;;;14.70;;
41903;SDS011;27586;51.124;4.182;2023-04-01T23:28:13;13.57;;;12.48;;
41903;SDS011;27586;51.124;4.182;2023-04-01T23:35:49;14.75;;;13.35;;
41903;SDS011;27586;51.124;4.182;2023-04-01T23:38:15;15.13;;;13.73;;
41903;SDS011;27586;51.124;4.182;2023-04-01T23:40:42;15.57;;;14.20;;
41903;SDS011;27586;51.124;4.182;2023-04-01T23:43:14;15.02;;;13.73;;
41903;SDS011;27586;51.124;4.182;2023-04-01T23:45:49;15.45;;;13.98;;
41903;SDS011;27586;51.124;4.182;2023-04-01T23:48:15;14.88;;;13.57;;
41903;SDS011;27586;51.124;4.182;2023-04-01T23:50:43;15.18;;;13.88;;
41903;SDS011;27586;51.124;4.182;2023-04-01T23:53:16;16.13;;;14.73;;
41903;SDS011;27586;51.124;4.182;2023-04-01T23:55:48;16.55;;;15.05;;
41903;SDS011;27586;51.124;4.182;2023-04-01T23:58:26;15.48;;;14.05;;
